sensor_id;sensor_type;location;lat;lon;timestamp;temperature;humidity
16758;DHT22;8497;51.346;12.396;2024-03-23T00:53:38;11.90;99.90
16758;DHT22;8497;51.346;12.396;2024-03-23T00:56:06;11.90;99.90
16758;DHT22;8497;51.346;12.396;2024-03-23T00:58:33;12.00;99.90
16758;DHT22;8497;51.346;12.396;2024-03-23T01:01:00;11.90;99.90
16758;DHT22;8497;51.346;12.396;2024-03-23T01:03:30;11.90;99.90
16758;DHT22;8497;51.346;12.396;2024-03-23T01:05:59;11.90;99.90
16758;DHT22;8497;51.346;12.396;2024-03-23T01:08:27;11.90;99.90
16758;DHT22;8497;51.346;12.396;2024-03-23T01:10:56;11.90;99.90
16758;DHT22;8497;51.346;12.396;2024-03-23T01:13:25;11.90;99.90
16758;DHT22;8497;51.346;12.396;2024-03-23T01:15:52;11.90;99.90
16758;DHT22;8497;51.346;12.396;2024-03-23T01:18:27;11.90;99.90
16758;DHT22;8497;51.346;12.396;2024-03-23T01:20:55;11.90;99.90
16758;DHT22;8497;51.346;12.396;2024-03-23T01:23:25;11.80;99.90
16758;DHT22;8497;51.346;12.396;2024-03-23T01:25:52;11.80;99.90
16758;DHT22;8497;51.346;12.396;2024-03-23T01:28:20;11.70;99.90
16758;DHT22;8497;51.346;12.396;2024-03-23T01:30:47;11.70;99.90
16758;DHT22;8497;51.346;12.396;2024-03-23T01:33:15;11.60;99.90
16758;DHT22;8497;51.346;12.396;2024-03-23T01:35:42;11.60;99.90
16758;DHT22;8497;51.346;12.396;2024-03-23T01:38:10;11.50;99.90
16758;DHT22;8497;51.346;12.396;2024-03-23T01:40:37;11.50;99.90
16758;DHT22;8497;51.346;12.396;2024-03-23T01:43:06;11.50;99.90
16758;DHT22;8497;51.346;12.396;2024-03-23T01:45:34;11.40;99.90
16758;DHT22;8497;51.346;12.396;2024-03-23T01:48:02;11.40;99.90
16758;DHT22;8497;51.346;12.396;2024-03-23T01:50:30;11.40;99.90
16758;DHT22;8497;51.346;12.396;2024-03-23T01:53:00;11.30;99.90
16758;DHT22;8497;51.346;12.396;2024-03-23T01:55:30;11.30;99.90
16758;DHT22;8497;51.346;12.396;2024-03-23T01:58:00;11.30;99.90
16758;DHT22;8497;51.346;12.396;2024-03-23T02:00:27;11.20;99.90
16758;DHT22;8497;51.346;12.396;2024-03-23T02:03:22;11.20;99.90
16758;DHT22;8497;51.346;12.396;2024-03-23T02:05:49;11.20;99.90
16758;DHT22;8497;51.346;12.396;2024-03-23T02:08:17;11.20;99.90
16758;DHT22;8497;51.346;12.396;2024-03-23T02:10:47;11.10;99.90
16758;DHT22;8497;51.346;12.396;2024-03-23T02:13:15;11.00;99.90
16758;DHT22;8497;51.346;12.396;2024-03-23T02:15:42;11.00;99.90
16758;DHT22;8497;51.346;12.396;2024-03-23T02:18:10;11.00;99.90
16758;DHT22;8497;51.346;12.396;2024-03-23T02:20:37;10.90;99.90
16758;DHT22;8497;51.346;12.396;2024-03-23T02:23:13;10.90;99.90
16758;DHT22;8497;51.346;12.396;2024-03-23T02:25:39;10.80;99.90
16758;DHT22;8497;51.346;12.396;2024-03-23T02:28:07;10.80;99.90
16758;DHT22;8497;51.346;12.396;2024-03-23T02:30:34;10.80;99.90
16758;DHT22;8497;51.346;12.396;2024-03-23T02:33:02;10.70;99.90
16758;DHT22;8497;51.346;12.396;2024-03-23T02:35:29;10.70;99.90
16758;DHT22;8497;51.346;12.396;2024-03-23T02:37:56;10.60;99.90
16758;DHT22;8497;51.346;12.396;2024-03-23T02:40:24;10.70;99.90
16758;DHT22;8497;51.346;12.396;2024-03-23T02:42:52;10.60;99.90
16758;DHT22;8497;51.346;12.396;2024-03-23T02:45:19;10.60;99.90
16758;DHT22;8497;51.346;12.396;2024-03-23T02:47:46;10.60;99.90
16758;DHT22;8497;51.346;12.396;2024-03-23T02:50:13;10.60;99.90
16758;DHT22;8497;51.346;12.396;2024-03-23T02:52:41;10.50;99.90
16758;DHT22;8497;51.346;12.396;2024-03-23T02:55:08;10.60;99.90
16758;DHT22;8497;51.346;12.396;2024-03-23T02:57:37;10.50;99.90
16758;DHT22;8497;51.346;12.396;2024-03-23T03:00:06;10.60;99.90
16758;DHT22;8497;51.346;12.396;2024-03-23T03:02:36;10.60;99.90
16758;DHT22;8497;51.346;12.396;2024-03-23T03:05:04;10.60;99.90
16758;DHT22;8497;51.346;12.396;2024-03-23T03:07:32;10.60;99.90
16758;DHT22;8497;51.346;12.396;2024-03-23T03:09:59;10.60;99.90
16758;DHT22;8497;51.346;12.396;2024-03-23T03:12:26;10.60;99.90
16758;DHT22;8497;51.346;12.396;2024-03-23T03:14:54;10.50;99.90
16758;DHT22;8497;51.346;12.396;2024-03-23T03:17:24;10.50;99.90
16758;DHT22;8497;51.346;12.396;2024-03-23T03:19:51;10.60;99.90
16758;DHT22;8497;51.346;12.396;2024-03-23T03:22:21;10.60;99.90
16758;DHT22;8497;51.346;12.396;2024-03-23T03:24:48;10.70;99.90
16758;DHT22;8497;51.346;12.396;2024-03-23T03:27:16;10.70;99.90
16758;DHT22;8497;51.346;12.396;2024-03-23T03:29:42;10.70;99.90
16758;DHT22;8497;51.346;12.396;2024-03-23T03:32:11;10.60;99.90
16758;DHT22;8497;51.346;12.396;2024-03-23T03:34:38;10.60;99.90
16758;DHT22;8497;51.346;12.396;2024-03-23T03:37:06;10.60;99.90
16758;DHT22;8497;51.346;12.396;2024-03-23T03:39:33;10.50;99.90
16758;DHT22;8497;51.346;12.396;2024-03-23T03:42:00;10.50;99.90
16758;DHT22;8497;51.346;12.396;2024-03-23T03:44:32;10.50;99.90
16758;DHT22;8497;51.346;12.396;2024-03-23T03:47:00;10.50;99.90
16758;DHT22;8497;51.346;12.396;2024-03-23T03:49:29;10.50;99.90
16758;DHT22;8497;51.346;12.396;2024-03-23T03:51:57;10.50;99.90
16758;DHT22;8497;51.346;12.396;2024-03-23T03:54:25;10.50;99.90
16758;DHT22;8497;51.346;12.396;2024-03-23T03:56:54;10.60;99.90
16758;DHT22;8497;51.346;12.396;2024-03-23T03:59:21;10.60;99.90
16758;DHT22;8497;51.346;12.396;2024-03-23T04:01:48;10.60;99.90
16758;DHT22;8497;51.346;12.396;2024-03-23T04:04:15;10.70;99.90
16758;DHT22;8497;51.346;12.396;2024-03-23T04:06:47;10.70;99.90
16758;DHT22;8497;51.346;12.396;2024-03-23T04:09:13;10.70;99.90
16758;DHT22;8497;51.346;12.396;2024-03-23T04:11:41;10.70;99.90
16758;DHT22;8497;51.346;12.396;2024-03-23T04:14:10;10.80;99.90
16758;DHT22;8497;51.346;12.396;2024-03-23T04:16:37;10.70;99.90
16758;DHT22;8497;51.346;12.396;2024-03-23T04:19:04;10.80;99.90
16758;DHT22;8497;51.346;12.396;2024-03-23T04:21:34;10.80;99.90
16758;DHT22;8497;51.346;12.396;2024-03-23T04:24:05;10.80;99.90
16758;DHT22;8497;51.346;12.396;2024-03-23T04:26:40;10.70;99.90
16758;DHT22;8497;51.346;12.396;2024-03-23T04:29:07;10.70;99.90
16758;DHT22;8497;51.346;12.396;2024-03-23T04:31:38;10.70;99.90
16758;DHT22;8497;51.346;12.396;2024-03-23T04:34:05;10.70;99.90
16758;DHT22;8497;51.346;12.396;2024-03-23T04:36:32;10.60;99.90
16758;DHT22;8497;51.346;12.396;2024-03-23T04:38:59;10.60;99.90
16758;DHT22;8497;51.346;12.396;2024-03-23T04:41:28;10.60;99.90
16758;DHT22;8497;51.346;12.396;2024-03-23T04:43:57;10.60;99.90
16758;DHT22;8497;51.346;12.396;2024-03-23T04:46:24;10.60;99.90
16758;DHT22;8497;51.346;12.396;2024-03-23T04:48:52;10.60;99.90
16758;DHT22;8497;51.346;12.396;2024-03-23T04:51:23;10.60;99.90
16758;DHT22;8497;51.346;12.396;2024-03-23T04:53:51;10.70;99.90
16758;DHT22;8497;51.346;12.396;2024-03-23T04:56:18;10.70;99.90
16758;DHT22;8497;51.346;12.396;2024-03-23T04:58:47;10.70;99.90
16758;DHT22;8497;51.346;12.396;2024-03-23T05:01:14;10.70;99.90
16758;DHT22;8497;51.346;12.396;2024-03-23T05:03:42;10.70;99.90
16758;DHT22;8497;51.346;12.396;2024-03-23T05:06:09;10.70;99.90
16758;DHT22;8497;51.346;12.396;2024-03-23T05:08:44;10.70;99.90
16758;DHT22;8497;51.346;12.396;2024-03-23T05:11:11;10.70;99.90
16758;DHT22;8497;51.346;12.396;2024-03-23T05:13:39;10.60;99.90
16758;DHT22;8497;51.346;12.396;2024-03-23T05:16:07;10.60;99.90
16758;DHT22;8497;51.346;12.396;2024-03-23T05:18:35;10.70;99.90
16758;DHT22;8497;51.346;12.396;2024-03-23T05:21:02;10.70;99.90
16758;DHT22;8497;51.346;12.396;2024-03-23T05:23:32;10.70;99.90
16758;DHT22;8497;51.346;12.396;2024-03-23T05:25:59;10.70;99.90
16758;DHT22;8497;51.346;12.396;2024-03-23T05:28:26;10.60;99.90
16758;DHT22;8497;51.346;12.396;2024-03-23T05:30:53;10.60;99.90
16758;DHT22;8497;51.346;12.396;2024-03-23T05:33:23;10.70;99.90
16758;DHT22;8497;51.346;12.396;2024-03-23T05:35:56;10.70;99.90
16758;DHT22;8497;51.346;12.396;2024-03-23T05:38:24;10.70;99.90
16758;DHT22;8497;51.346;12.396;2024-03-23T05:40:54;10.70;99.90
16758;DHT22;8497;51.346;12.396;2024-03-23T05:43:22;10.70;99.90
16758;DHT22;8497;51.346;12.396;2024-03-23T05:45:53;10.70;99.90
16758;DHT22;8497;51.346;12.396;2024-03-23T05:48:22;10.70;99.90
16758;DHT22;8497;51.346;12.396;2024-03-23T05:50:51;10.70;99.90
16758;DHT22;8497;51.346;12.396;2024-03-23T05:53:19;10.80;99.90
16758;DHT22;8497;51.346;12.396;2024-03-23T05:55:47;10.70;99.90
16758;DHT22;8497;51.346;12.396;2024-03-23T05:58:15;10.70;99.90
16758;DHT22;8497;51.346;12.396;2024-03-23T06:00:43;10.70;99.90
16758;DHT22;8497;51.346;12.396;2024-03-23T06:03:10;10.70;99.90
16758;DHT22;8497;51.346;12.396;2024-03-23T06:05:39;10.70;99.90
16758;DHT22;8497;51.346;12.396;2024-03-23T06:08:06;10.80;99.90
16758;DHT22;8497;51.346;12.396;2024-03-23T06:10:35;10.80;99.90
16758;DHT22;8497;51.346;12.396;2024-03-23T06:13:02;10.80;99.90
16758;DHT22;8497;51.346;12.396;2024-03-23T06:15:29;10.70;99.90
16758;DHT22;8497;51.346;12.396;2024-03-23T06:17:57;10.60;99.90
16758;DHT22;8497;51.346;12.396;2024-03-23T06:20:25;10.60;99.90
16758;DHT22;8497;51.346;12.396;2024-03-23T06:22:53;10.60;99.90
16758;DHT22;8497;51.346;12.396;2024-03-23T06:25:21;10.60;99.90
16758;DHT22;8497;51.346;12.396;2024-03-23T06:27:47;10.50;99.90
16758;DHT22;8497;51.346;12.396;2024-03-23T06:30:15;10.10;99.90
16758;DHT22;8497;51.346;12.396;2024-03-23T06:32:42;10.50;99.90
16758;DHT22;8497;51.346;12.396;2024-03-23T06:35:11;10.40;99.90
16758;DHT22;8497;51.346;12.396;2024-03-23T06:37:38;10.40;99.90
16758;DHT22;8497;51.346;12.396;2024-03-23T06:40:09;10.30;99.90
16758;DHT22;8497;51.346;12.396;2024-03-23T06:42:36;10.30;99.90
16758;DHT22;8497;51.346;12.396;2024-03-23T06:45:05;10.30;99.90
16758;DHT22;8497;51.346;12.396;2024-03-23T06:47:32;10.30;99.90
16758;DHT22;8497;51.346;12.396;2024-03-23T06:50:01;10.30;99.90
16758;DHT22;8497;51.346;12.396;2024-03-23T06:52:28;10.30;99.90
16758;DHT22;8497;51.346;12.396;2024-03-23T06:54:59;10.20;99.90
16758;DHT22;8497;51.346;12.396;2024-03-23T06:57:27;10.20;99.90
16758;DHT22;8497;51.346;12.396;2024-03-23T06:59:59;10.20;99.90
16758;DHT22;8497;51.346;12.396;2024-03-23T07:02:25;10.20;99.90
16758;DHT22;8497;51.346;12.396;2024-03-23T07:04:53;10.10;99.90
16758;DHT22;8497;51.346;12.396;2024-03-23T07:07:19;10.00;99.90
16758;DHT22;8497;51.346;12.396;2024-03-23T07:09:47;10.00;99.90
16758;DHT22;8497;51.346;12.396;2024-03-23T07:12:13;10.00;99.90
16758;DHT22;8497;51.346;12.396;2024-03-23T07:14:42;9.90;99.90
16758;DHT22;8497;51.346;12.396;2024-03-23T07:17:11;9.90;99.90
16758;DHT22;8497;51.346;12.396;2024-03-23T07:19:38;9.90;99.90
16758;DHT22;8497;51.346;12.396;2024-03-23T07:22:05;9.90;99.90
16758;DHT22;8497;51.346;12.396;2024-03-23T07:24:32;9.90;99.90
16758;DHT22;8497;51.346;12.396;2024-03-23T07:26:59;9.90;99.90
16758;DHT22;8497;51.346;12.396;2024-03-23T07:29:28;9.80;99.90
16758;DHT22;8497;51.346;12.396;2024-03-23T07:31:57;9.80;99.90
16758;DHT22;8497;51.346;12.396;2024-03-23T07:34:26;9.70;99.90
16758;DHT22;8497;51.346;12.396;2024-03-23T07:36:52;9.60;99.90
16758;DHT22;8497;51.346;12.396;2024-03-23T07:39:22;9.70;99.90
16758;DHT22;8497;51.346;12.396;2024-03-23T07:41:49;9.60;99.90
16758;DHT22;8497;51.346;12.396;2024-03-23T07:44:16;9.50;99.90
16758;DHT22;8497;51.346;12.396;2024-03-23T07:46:43;9.40;99.90
16758;DHT22;8497;51.346;12.396;2024-03-23T07:49:13;9.30;99.90
16758;DHT22;8497;51.346;12.396;2024-03-23T07:51:41;9.20;99.90
16758;DHT22;8497;51.346;12.396;2024-03-23T07:54:09;9.00;99.90
16758;DHT22;8497;51.346;12.396;2024-03-23T07:56:35;8.90;99.90
16758;DHT22;8497;51.346;12.396;2024-03-23T07:59:03;8.80;99.90
16758;DHT22;8497;51.346;12.396;2024-03-23T08:01:29;8.60;99.90
16758;DHT22;8497;51.346;12.396;2024-03-23T08:03:57;8.30;99.90
16758;DHT22;8497;51.346;12.396;2024-03-23T08:06:25;8.00;99.90
16758;DHT22;8497;51.346;12.396;2024-03-23T08:08:53;7.80;99.90
16758;DHT22;8497;51.346;12.396;2024-03-23T08:11:25;7.70;99.90
16758;DHT22;8497;51.346;12.396;2024-03-23T08:13:53;7.50;99.90
16758;DHT22;8497;51.346;12.396;2024-03-23T08:16:20;7.40;99.90
16758;DHT22;8497;51.346;12.396;2024-03-23T08:18:48;7.20;99.90
16758;DHT22;8497;51.346;12.396;2024-03-23T08:21:18;7.10;99.90
16758;DHT22;8497;51.346;12.396;2024-03-23T08:23:47;7.00;99.90
16758;DHT22;8497;51.346;12.396;2024-03-23T08:26:15;7.00;99.90
16758;DHT22;8497;51.346;12.396;2024-03-23T08:28:43;6.90;99.90
16758;DHT22;8497;51.346;12.396;2024-03-23T08:31:11;6.90;99.90
16758;DHT22;8497;51.346;12.396;2024-03-23T08:33:40;6.90;99.90
16758;DHT22;8497;51.346;12.396;2024-03-23T08:36:10;6.90;99.90
16758;DHT22;8497;51.346;12.396;2024-03-23T08:38:40;6.80;99.90
16758;DHT22;8497;51.346;12.396;2024-03-23T08:41:09;6.80;99.90
16758;DHT22;8497;51.346;12.396;2024-03-23T08:43:40;6.70;99.90
16758;DHT22;8497;51.346;12.396;2024-03-23T08:46:09;6.60;99.90
16758;DHT22;8497;51.346;12.396;2024-03-23T08:48:39;6.50;99.90
16758;DHT22;8497;51.346;12.396;2024-03-23T08:51:10;6.50;99.90
16758;DHT22;8497;51.346;12.396;2024-03-23T08:53:39;6.50;99.90
16758;DHT22;8497;51.346;12.396;2024-03-23T08:56:08;6.40;99.90
16758;DHT22;8497;51.346;12.396;2024-03-23T08:58:37;6.40;99.90
16758;DHT22;8497;51.346;12.396;2024-03-23T09:01:05;6.40;99.90
16758;DHT22;8497;51.346;12.396;2024-03-23T09:03:34;6.50;99.90
16758;DHT22;8497;51.346;12.396;2024-03-23T09:06:02;6.50;99.90
16758;DHT22;8497;51.346;12.396;2024-03-23T09:08:35;6.50;99.90
16758;DHT22;8497;51.346;12.396;2024-03-23T09:11:04;6.60;99.90
16758;DHT22;8497;51.346;12.396;2024-03-23T09:13:34;6.70;99.90
16758;DHT22;8497;51.346;12.396;2024-03-23T09:16:02;6.80;99.90
16758;DHT22;8497;51.346;12.396;2024-03-23T09:18:32;6.90;99.90
16758;DHT22;8497;51.346;12.396;2024-03-23T09:20:59;6.90;99.90
16758;DHT22;8497;51.346;12.396;2024-03-23T09:23:28;7.00;99.90
16758;DHT22;8497;51.346;12.396;2024-03-23T09:25:55;7.00;99.90
16758;DHT22;8497;51.346;12.396;2024-03-23T09:28:23;7.00;99.90
16758;DHT22;8497;51.346;12.396;2024-03-23T09:30:52;7.10;99.90
16758;DHT22;8497;51.346;12.396;2024-03-23T09:33:19;7.20;99.90
16758;DHT22;8497;51.346;12.396;2024-03-23T09:35:46;7.40;99.90
16758;DHT22;8497;51.346;12.396;2024-03-23T09:38:14;7.40;99.90
16758;DHT22;8497;51.346;12.396;2024-03-23T09:40:41;7.50;99.90
16758;DHT22;8497;51.346;12.396;2024-03-23T09:43:09;7.60;99.90
16758;DHT22;8497;51.346;12.396;2024-03-23T09:45:38;7.60;99.90
16758;DHT22;8497;51.346;12.396;2024-03-23T09:48:09;7.60;99.90
16758;DHT22;8497;51.346;12.396;2024-03-23T09:50:37;7.60;99.90
16758;DHT22;8497;51.346;12.396;2024-03-23T09:53:07;7.60;99.90
16758;DHT22;8497;51.346;12.396;2024-03-23T09:55:34;7.60;99.90
16758;DHT22;8497;51.346;12.396;2024-03-23T09:58:02;7.60;99.90
16758;DHT22;8497;51.346;12.396;2024-03-23T10:00:31;7.50;99.90
16758;DHT22;8497;51.346;12.396;2024-03-23T10:03:00;7.50;99.90
16758;DHT22;8497;51.346;12.396;2024-03-23T10:05:32;7.50;99.90
16758;DHT22;8497;51.346;12.396;2024-03-23T10:08:00;7.50;99.90
16758;DHT22;8497;51.346;12.396;2024-03-23T10:10:44;7.50;99.90
16758;DHT22;8497;51.346;12.396;2024-03-23T10:13:11;7.50;99.90
16758;DHT22;8497;51.346;12.396;2024-03-23T10:15:55;7.50;99.90
16758;DHT22;8497;51.346;12.396;2024-03-23T10:18:23;7.40;99.90
16758;DHT22;8497;51.346;12.396;2024-03-23T10:21:08;7.30;99.90
16758;DHT22;8497;51.346;12.396;2024-03-23T10:23:37;7.20;99.90
16758;DHT22;8497;51.346;12.396;2024-03-23T10:26:17;7.20;99.90
16758;DHT22;8497;51.346;12.396;2024-03-23T10:28:55;7.30;99.90
16758;DHT22;8497;51.346;12.396;2024-03-23T10:31:27;7.30;99.90
16758;DHT22;8497;51.346;12.396;2024-03-23T10:33:53;7.30;99.90
16758;DHT22;8497;51.346;12.396;2024-03-23T10:36:24;7.30;99.90
16758;DHT22;8497;51.346;12.396;2024-03-23T10:38:53;7.30;99.90
16758;DHT22;8497;51.346;12.396;2024-03-23T10:41:21;7.40;99.90
16758;DHT22;8497;51.346;12.396;2024-03-23T10:43:51;7.30;99.90
16758;DHT22;8497;51.346;12.396;2024-03-23T10:46:19;7.30;99.90
16758;DHT22;8497;51.346;12.396;2024-03-23T10:48:46;7.30;99.90
16758;DHT22;8497;51.346;12.396;2024-03-23T10:51:14;7.30;99.90
16758;DHT22;8497;51.346;12.396;2024-03-23T10:53:42;7.30;99.90
16758;DHT22;8497;51.346;12.396;2024-03-23T10:56:12;7.10;99.90
16758;DHT22;8497;51.346;12.396;2024-03-23T10:58:42;7.20;99.90
16758;DHT22;8497;51.346;12.396;2024-03-23T11:01:13;7.20;99.90
16758;DHT22;8497;51.346;12.396;2024-03-23T11:03:45;7.20;99.90
16758;DHT22;8497;51.346;12.396;2024-03-23T11:06:34;7.20;99.90
16758;DHT22;8497;51.346;12.396;2024-03-23T11:09:03;7.40;99.90
16758;DHT22;8497;51.346;12.396;2024-03-23T11:11:51;7.60;99.90
16758;DHT22;8497;51.346;12.396;2024-03-23T11:14:22;7.70;99.90
16758;DHT22;8497;51.346;12.396;2024-03-23T11:17:08;7.60;99.90
16758;DHT22;8497;51.346;12.396;2024-03-23T11:19:36;7.70;99.90
16758;DHT22;8497;51.346;12.396;2024-03-23T11:22:05;7.90;99.90
16758;DHT22;8497;51.346;12.396;2024-03-23T11:24:33;8.00;99.90
16758;DHT22;8497;51.346;12.396;2024-03-23T11:27:01;8.10;99.90
16758;DHT22;8497;51.346;12.396;2024-03-23T11:29:30;8.10;99.90
16758;DHT22;8497;51.346;12.396;2024-03-23T11:32:00;8.20;99.90
16758;DHT22;8497;51.346;12.396;2024-03-23T11:34:29;8.30;99.90
16758;DHT22;8497;51.346;12.396;2024-03-23T11:37:05;8.40;99.90
16758;DHT22;8497;51.346;12.396;2024-03-23T11:39:33;8.40;99.90
16758;DHT22;8497;51.346;12.396;2024-03-23T11:42:03;8.50;99.90
16758;DHT22;8497;51.346;12.396;2024-03-23T11:44:30;8.60;99.90
16758;DHT22;8497;51.346;12.396;2024-03-23T11:47:08;8.70;99.90
16758;DHT22;8497;51.346;12.396;2024-03-23T11:49:34;8.90;99.90
16758;DHT22;8497;51.346;12.396;2024-03-23T11:52:07;9.00;99.90
16758;DHT22;8497;51.346;12.396;2024-03-23T11:54:35;9.30;99.90
16758;DHT22;8497;51.346;12.396;2024-03-23T11:57:07;9.50;99.90
16758;DHT22;8497;51.346;12.396;2024-03-23T11:59:35;9.70;99.90
16758;DHT22;8497;51.346;12.396;2024-03-23T12:02:07;9.70;99.90
16758;DHT22;8497;51.346;12.396;2024-03-23T12:04:36;9.90;99.90
16758;DHT22;8497;51.346;12.396;2024-03-23T12:07:11;10.00;99.30
16758;DHT22;8497;51.346;12.396;2024-03-23T12:09:43;10.10;98.90
16758;DHT22;8497;51.346;12.396;2024-03-23T12:12:14;10.10;98.50
16758;DHT22;8497;51.346;12.396;2024-03-23T12:14:42;10.10;98.30
16758;DHT22;8497;51.346;12.396;2024-03-23T12:17:11;10.10;98.20
16758;DHT22;8497;51.346;12.396;2024-03-23T12:19:39;10.10;98.20
16758;DHT22;8497;51.346;12.396;2024-03-23T12:22:07;10.30;98.20
16758;DHT22;8497;51.346;12.396;2024-03-23T12:24:35;10.40;98.00
16758;DHT22;8497;51.346;12.396;2024-03-23T12:27:04;10.70;97.90
16758;DHT22;8497;51.346;12.396;2024-03-23T12:29:31;10.60;96.80
16758;DHT22;8497;51.346;12.396;2024-03-23T12:32:02;10.40;96.20
16758;DHT22;8497;51.346;12.396;2024-03-23T12:34:29;10.30;96.00
16758;DHT22;8497;51.346;12.396;2024-03-23T12:36:57;10.30;96.40
16758;DHT22;8497;51.346;12.396;2024-03-23T12:39:24;10.60;96.70
16758;DHT22;8497;51.346;12.396;2024-03-23T12:42:16;10.70;96.30
16758;DHT22;8497;51.346;12.396;2024-03-23T12:45:03;10.70;95.40
16758;DHT22;8497;51.346;12.396;2024-03-23T12:47:32;11.00;95.70
16758;DHT22;8497;51.346;12.396;2024-03-23T12:50:02;11.00;95.10
16758;DHT22;8497;51.346;12.396;2024-03-23T12:52:29;11.00;95.20
16758;DHT22;8497;51.346;12.396;2024-03-23T12:54:59;11.00;94.80
16758;DHT22;8497;51.346;12.396;2024-03-23T12:57:27;10.90;94.10
16758;DHT22;8497;51.346;12.396;2024-03-23T12:59:55;10.70;94.10
16758;DHT22;8497;51.346;12.396;2024-03-23T13:02:22;10.70;94.50
16758;DHT22;8497;51.346;12.396;2024-03-23T13:04:50;10.70;94.40
16758;DHT22;8497;51.346;12.396;2024-03-23T13:07:18;10.90;94.70
16758;DHT22;8497;51.346;12.396;2024-03-23T13:09:46;11.00;94.50
16758;DHT22;8497;51.346;12.396;2024-03-23T13:12:15;11.00;94.40
16758;DHT22;8497;51.346;12.396;2024-03-23T13:14:46;11.10;94.10
16758;DHT22;8497;51.346;12.396;2024-03-23T13:17:13;11.20;94.10
16758;DHT22;8497;51.346;12.396;2024-03-23T13:19:42;11.50;94.00
16758;DHT22;8497;51.346;12.396;2024-03-23T13:22:09;11.60;94.00
16758;DHT22;8497;51.346;12.396;2024-03-23T13:24:38;11.60;93.50
16758;DHT22;8497;51.346;12.396;2024-03-23T13:27:05;11.60;93.00
16758;DHT22;8497;51.346;12.396;2024-03-23T13:29:39;11.70;93.10
16758;DHT22;8497;51.346;12.396;2024-03-23T13:32:08;11.80;92.80
16758;DHT22;8497;51.346;12.396;2024-03-23T13:34:36;11.90;92.60
16758;DHT22;8497;51.346;12.396;2024-03-23T13:37:02;11.90;92.10
16758;DHT22;8497;51.346;12.396;2024-03-23T13:39:30;12.00;91.90
16758;DHT22;8497;51.346;12.396;2024-03-23T13:41:57;12.10;91.50
16758;DHT22;8497;51.346;12.396;2024-03-23T13:44:24;12.20;91.30
16758;DHT22;8497;51.346;12.396;2024-03-23T13:46:54;12.20;90.60
16758;DHT22;8497;51.346;12.396;2024-03-23T13:49:28;12.30;90.40
16758;DHT22;8497;51.346;12.396;2024-03-23T13:51:56;12.30;90.30
16758;DHT22;8497;51.346;12.396;2024-03-23T13:54:24;12.20;89.40
16758;DHT22;8497;51.346;12.396;2024-03-23T13:56:52;12.10;88.90
16758;DHT22;8497;51.346;12.396;2024-03-23T13:59:21;11.80;87.00
16758;DHT22;8497;51.346;12.396;2024-03-23T14:01:49;11.60;87.10
16758;DHT22;8497;51.346;12.396;2024-03-23T14:04:17;11.40;88.00
16758;DHT22;8497;51.346;12.396;2024-03-23T14:06:47;11.00;89.30
16758;DHT22;8497;51.346;12.396;2024-03-23T14:09:15;10.60;90.20
16758;DHT22;8497;51.346;12.396;2024-03-23T14:11:46;10.30;90.80
16758;DHT22;8497;51.346;12.396;2024-03-23T14:14:14;10.30;91.50
16758;DHT22;8497;51.346;12.396;2024-03-23T14:16:42;10.50;92.10
16758;DHT22;8497;51.346;12.396;2024-03-23T14:19:29;10.70;92.00
16758;DHT22;8497;51.346;12.396;2024-03-23T14:22:11;10.70;92.20
16758;DHT22;8497;51.346;12.396;2024-03-23T14:24:56;10.90;92.20
16758;DHT22;8497;51.346;12.396;2024-03-23T14:27:27;10.90;92.10
16758;DHT22;8497;51.346;12.396;2024-03-23T14:29:53;10.80;92.00
16758;DHT22;8497;51.346;12.396;2024-03-23T14:32:26;10.70;92.00
16758;DHT22;8497;51.346;12.396;2024-03-23T14:34:55;10.60;92.40
16758;DHT22;8497;51.346;12.396;2024-03-23T14:37:47;10.50;92.40
16758;DHT22;8497;51.346;12.396;2024-03-23T14:40:14;10.10;92.10
16758;DHT22;8497;51.346;12.396;2024-03-23T14:42:41;9.70;92.40
16758;DHT22;8497;51.346;12.396;2024-03-23T14:45:09;9.50;92.90
16758;DHT22;8497;51.346;12.396;2024-03-23T14:47:37;9.20;93.10
16758;DHT22;8497;51.346;12.396;2024-03-23T14:50:06;9.10;93.50
16758;DHT22;8497;51.346;12.396;2024-03-23T14:52:34;8.90;93.60
16758;DHT22;8497;51.346;12.396;2024-03-23T14:55:06;8.80;94.00
16758;DHT22;8497;51.346;12.396;2024-03-23T14:57:35;8.70;94.20
16758;DHT22;8497;51.346;12.396;2024-03-23T15:00:01;8.60;94.30
16758;DHT22;8497;51.346;12.396;2024-03-23T15:02:31;8.60;94.60
16758;DHT22;8497;51.346;12.396;2024-03-23T15:04:58;8.60;94.80
16758;DHT22;8497;51.346;12.396;2024-03-23T15:07:26;8.50;94.90
16758;DHT22;8497;51.346;12.396;2024-03-23T15:09:54;8.50;95.00
16758;DHT22;8497;51.346;12.396;2024-03-23T15:12:23;8.40;95.10
16758;DHT22;8497;51.346;12.396;2024-03-23T15:14:49;8.30;95.20
16758;DHT22;8497;51.346;12.396;2024-03-23T15:17:17;8.20;95.20
16758;DHT22;8497;51.346;12.396;2024-03-23T15:19:44;8.10;95.30
16758;DHT22;8497;51.346;12.396;2024-03-23T15:22:12;8.30;95.80
16758;DHT22;8497;51.346;12.396;2024-03-23T15:24:38;8.50;96.00
16758;DHT22;8497;51.346;12.396;2024-03-23T15:27:06;8.80;96.00
16758;DHT22;8497;51.346;12.396;2024-03-23T15:29:36;9.00;95.90
16758;DHT22;8497;51.346;12.396;2024-03-23T15:32:04;9.10;95.70
16758;DHT22;8497;51.346;12.396;2024-03-23T15:34:31;9.00;95.50
16758;DHT22;8497;51.346;12.396;2024-03-23T15:36:59;9.00;95.60
16758;DHT22;8497;51.346;12.396;2024-03-23T15:39:25;9.00;95.20
16758;DHT22;8497;51.346;12.396;2024-03-23T15:41:53;9.10;95.40
16758;DHT22;8497;51.346;12.396;2024-03-23T15:44:20;9.10;95.40
16758;DHT22;8497;51.346;12.396;2024-03-23T15:46:49;9.20;95.30
16758;DHT22;8497;51.346;12.396;2024-03-23T15:49:16;9.20;95.30
16758;DHT22;8497;51.346;12.396;2024-03-23T15:51:43;9.20;94.90
16758;DHT22;8497;51.346;12.396;2024-03-23T15:54:10;9.10;94.80
16758;DHT22;8497;51.346;12.396;2024-03-23T15:56:38;9.10;94.80
16758;DHT22;8497;51.346;12.396;2024-03-23T15:59:05;9.00;94.80
16758;DHT22;8497;51.346;12.396;2024-03-23T16:01:33;9.00;94.80
16758;DHT22;8497;51.346;12.396;2024-03-23T16:04:02;9.00;94.80
16758;DHT22;8497;51.346;12.396;2024-03-23T16:06:29;9.00;94.80
16758;DHT22;8497;51.346;12.396;2024-03-23T16:08:56;9.00;94.90
16758;DHT22;8497;51.346;12.396;2024-03-23T16:11:23;8.90;94.90
16758;DHT22;8497;51.346;12.396;2024-03-23T16:13:50;8.90;94.80
16758;DHT22;8497;51.346;12.396;2024-03-23T16:16:17;8.80;95.10
16758;DHT22;8497;51.346;12.396;2024-03-23T16:18:50;8.80;94.90
16758;DHT22;8497;51.346;12.396;2024-03-23T16:21:19;8.70;94.90
16758;DHT22;8497;51.346;12.396;2024-03-23T16:23:45;8.80;95.00
16758;DHT22;8497;51.346;12.396;2024-03-23T16:26:13;8.70;94.90
16758;DHT22;8497;51.346;12.396;2024-03-23T16:28:42;8.70;95.10
16758;DHT22;8497;51.346;12.396;2024-03-23T16:31:10;8.70;95.10
16758;DHT22;8497;51.346;12.396;2024-03-23T16:33:37;8.70;95.20
16758;DHT22;8497;51.346;12.396;2024-03-23T16:36:06;8.60;95.20
16758;DHT22;8497;51.346;12.396;2024-03-23T16:38:37;8.60;95.30
16758;DHT22;8497;51.346;12.396;2024-03-23T16:41:06;8.60;95.30